createdAt,value
2022-10-18T00:09:05.441Z,834.80876
2022-10-18T00:24:07.835Z,783.49994
2022-10-18T00:39:10.169Z,774.91835
2022-10-18T00:54:12.468Z,788.74074
2022-10-18T01:09:14.796Z,781.76845
2022-10-18T01:24:17.096Z,791.83038
2022-10-18T01:39:19.507Z,822.67492
2022-10-18T01:54:21.819Z,827.00225
2022-10-18T02:09:24.146Z,814.62341
2022-10-18T02:24:26.475Z,788.30133
2022-10-18T02:39:28.833Z,795.39117
2022-10-18T02:54:31.178Z,793.60678
2022-10-18T03:09:33.497Z,784.8036
2022-10-18T03:24:35.852Z,790.94516
2022-10-18T03:39:38.137Z,785.67512
2022-10-18T03:54:40.448Z,791.83038
2022-10-18T04:09:42.774Z,783.49994
2022-10-18T04:24:45.054Z,782.63324
2022-10-18T04:39:49.944Z,788.30133
2022-10-18T04:54:55.435Z,789.18064
2022-10-18T05:09:57.733Z,780.0446
2022-10-18T05:25:00.045Z,782.63324
2022-10-18T05:40:02.560Z,799.43552
2022-10-18T05:55:04.911Z,815.56246
2022-10-18T06:10:07.191Z,821.71943
2022-10-18T06:25:09.456Z,869.16512
2022-10-18T06:40:11.946Z,884.92858
2022-10-18T06:55:14.254Z,911.14023
2022-10-18T07:10:16.507Z,947.75669
2022-10-18T07:25:19.120Z,972.50909
2022-10-18T07:40:21.685Z,984.69083
2022-10-18T07:55:24.216Z,1019.45295
2022-10-18T08:10:26.669Z,1049.70377
2022-10-18T08:25:29.038Z,1093.509
2022-10-18T08:40:31.622Z,1098.60299
2022-10-18T08:55:33.944Z,1112.42189
2022-10-18T09:10:36.282Z,1123.01638
2022-10-18T09:25:38.553Z,1130.1922
2022-10-18T09:40:40.818Z,1137.46031
2022-10-18T09:55:43.206Z,1150.40701
2022-10-18T10:10:45.492Z,1161.74106
2022-10-18T10:25:47.814Z,1174.27436
2022-10-18T10:40:50.124Z,1207.33839
2022-10-18T10:55:52.454Z,1232.5789
2022-10-18T11:10:54.712Z,1262.26634
2022-10-18T11:25:57.022Z,1258.8973
2022-10-18T11:40:59.286Z,1253.32203
2022-10-18T11:56:01.710Z,1266.78654
2022-10-18T12:11:05.758Z,1295.78805
2022-10-18T12:26:08.901Z,1284.02955
2022-10-18T12:41:11.210Z,1272.48252
2022-10-18T12:56:13.562Z,1150.40701
2022-10-18T13:11:15.874Z,1142.97304
2022-10-18T13:26:18.172Z,1205.2816
2022-10-18T13:41:20.580Z,1188.07775
2022-10-18T13:56:22.940Z,1211.47311
2022-10-18T14:11:25.292Z,1145.74949
2022-10-18T14:26:27.691Z,1161.74106
2022-10-18T14:41:30.027Z,1157.93831
2022-10-18T14:56:32.296Z,1167.49225
2022-10-18T15:11:34.644Z,1120.34888
2022-10-18T15:26:36.875Z,1133.81461
2022-10-18T15:41:39.299Z,1192.08138
2022-10-18T15:56:41.611Z,1226.17035
2022-10-18T16:11:43.878Z,1255.5462
2022-10-18T16:26:46.226Z,1432.18675
2022-10-18T16:41:48.475Z,1439.47152
2022-10-18T16:56:50.751Z,1416.41693
2022-10-18T17:11:53.110Z,1472.42507
2022-10-18T17:26:55.434Z,1433.6378
2022-10-18T17:41:57.752Z,1432.18675
2022-10-18T17:57:00.031Z,1452.77259
2022-10-18T18:12:02.326Z,1420.68324
2022-10-18T18:27:04.538Z,1439.47152
2022-10-18T18:42:06.871Z,1438.00864
2022-10-18T18:57:09.213Z,1685.52759
2022-10-18T19:12:11.478Z,1470.89449
2022-10-18T19:27:13.788Z,1348.90423
2022-10-18T19:42:19.173Z,1274.77528
2022-10-18T19:57:25.114Z,1294.60252
2022-10-18T20:12:27.466Z,1213.55111
2022-10-18T20:27:30.115Z,1221.93488
2022-10-18T20:42:32.621Z,1321.19565
2022-10-18T20:57:36.545Z,1285.19578
2022-10-18T21:12:39.148Z,1250.00051
2022-10-18T21:27:41.442Z,1269.0588
2022-10-18T21:42:43.799Z,1311.39995
2022-10-18T21:57:46.126Z,1265.65346
2022-10-18T22:12:48.587Z,1216.6815
2022-10-18T22:27:51.013Z,1209.40221
2022-10-18T22:42:53.339Z,1197.12402
2022-10-18T22:57:55.703Z,1252.2129
2022-10-18T23:12:58.017Z,1122.1258
2022-10-18T23:28:00.342Z,1026.85101
2022-10-18T23:43:02.745Z,933.37781
2022-10-18T23:58:05.266Z,879.97562
